Time;durP1;ratioP1;P1;durP2;ratioP2;P2;SDS_P1;SDS_P2;PMS_P1;PMS_P2;Temp;Humidity;BMP_temperature;BMP_pressure;BME280_temperature;BME280_humidity;BME280_pressure;Samples;Min_cycle;Max_cycle;Signal;HPM_P1;HPM_P2
2022/05/27 00:02:00;;;;;;;10.35;3.35;;;14.60;99.90;;;;;;5069763;28;20485;-75
2022/05/27 00:04:26;;;;;;;9.93;3.53;;;14.60;99.90;;;;;;5064464;28;20448;-75
2022/05/27 00:06:52;;;;;;;8.93;3.30;;;14.60;99.90;;;;;;5052672;28;21928;-75
2022/05/27 00:09:18;;;;;;;10.82;3.92;;;14.60;99.90;;;;;;5040397;28;20052;-75
2022/05/27 00:11:44;;;;;;;9.60;3.03;;;14.60;99.90;;;;;;5064027;28;20119;-74
2022/05/27 00:14:10;;;;;;;11.38;4.22;;;14.60;99.90;;;;;;5071395;28;20119;-75
2022/05/27 00:16:35;;;;;;;8.32;3.40;;;14.60;99.90;;;;;;5072919;28;20040;-75
2022/05/27 00:19:01;;;;;;;8.70;3.05;;;14.70;99.90;;;;;;5070255;28;20047;-76
2022/05/27 00:21:27;;;;;;;12.95;3.70;;;14.70;99.90;;;;;;5071771;28;20020;-76
2022/05/27 00:23:53;;;;;;;7.60;3.35;;;14.60;99.90;;;;;;5051943;28;20095;-75
2022/05/27 00:26:19;;;;;;;13.55;4.13;;;14.60;99.90;;;;;;5068203;28;20043;-75
2022/05/27 00:28:44;;;;;;;9.38;3.53;;;14.60;99.90;;;;;;5061113;28;20062;-76
2022/05/27 00:31:10;;;;;;;10.80;3.97;;;14.60;99.90;;;;;;5045836;28;20047;-76
2022/05/27 00:33:38;;;;;;;11.48;4.30;;;14.40;99.90;;;;;;5067547;28;20561;-74
2022/05/27 00:36:10;;;;;;;11.48;3.92;;;14.40;99.90;;;;;;5070791;28;20350;-75
2022/05/27 00:38:38;;;;;;;14.05;4.05;;;14.40;99.90;;;;;;5062125;28;20109;-75
2022/05/27 00:41:03;;;;;;;10.63;3.33;;;14.40;99.90;;;;;;5066736;28;20068;-76
2022/05/27 00:43:29;;;;;;;9.90;3.60;;;14.40;99.90;;;;;;5055842;28;20474;-76
2022/05/27 00:46:03;;;;;;;13.05;4.28;;;14.40;99.90;;;;;;5054526;28;20110;-74
2022/05/27 00:48:31;;;;;;;13.77;4.07;;;14.40;99.90;;;;;;5069521;28;20062;-74
2022/05/27 00:50:57;;;;;;;13.38;4.63;;;14.40;99.90;;;;;;5077839;28;20039;-76
2022/05/27 00:53:33;;;;;;;10.88;4.20;;;14.40;99.90;;;;;;5059302;28;20094;-76
2022/05/27 00:56:02;;;;;;;11.70;3.78;;;14.30;99.90;;;;;;5054788;28;20048;-76
2022/05/27 00:58:32;;;;;;;10.80;3.58;;;14.30;99.90;;;;;;5066252;28;20083;-75
2022/05/27 01:00:59;;;;;;;15.32;4.80;;;14.30;99.90;;;;;;5069002;28;20477;-75
2022/05/27 01:03:27;;;;;;;14.07;4.40;;;14.20;99.90;;;;;;5071751;28;20044;-75
2022/05/27 01:05:53;;;;;;;14.88;4.13;;;14.10;99.90;;;;;;5049183;28;20052;-75
2022/05/27 01:08:21;;;;;;;10.07;4.53;;;14.00;99.90;;;;;;5081712;22;20131;-76
2022/05/27 01:11:12;;;;;;;10.27;4.15;;;14.00;99.90;;;;;;5075246;28;20075;-77
2022/05/27 01:14:08;;;;;;;12.10;3.75;;;13.90;99.90;;;;;;5064029;28;20139;-76
2022/05/27 01:16:54;;;;;;;10.55;4.32;;;13.90;99.90;;;;;;5063317;28;20086;-76
2022/05/27 01:22:59;;;;;;;13.68;4.45;;;13.70;99.90;;;;;;5078519;28;20377;-76
2022/05/27 01:25:46;;;;;;;9.68;3.67;;;13.60;99.90;;;;;;5080055;28;20044;-76
2022/05/27 01:28:56;;;;;;;14.40;3.90;;;13.50;99.90;;;;;;5077090;28;20040;-76
2022/05/27 01:31:43;;;;;;;8.90;3.95;;;13.50;99.90;;;;;;5050930;28;20051;-76
2022/05/27 01:34:20;;;;;;;15.18;4.40;;;13.50;99.90;;;;;;5066739;28;20040;-77
2022/05/27 01:37:09;;;;;;;10.05;4.57;;;13.40;99.90;;;;;;5071437;28;20040;-76
2022/05/27 01:40:02;;;;;;;16.23;4.65;;;13.40;99.90;;;;;;5081081;28;20079;-76
2022/05/27 01:42:55;;;;;;;13.45;4.10;;;13.30;99.90;;;;;;5074855;28;20050;-77
2022/05/27 01:45:33;;;;;;;10.77;4.10;;;13.30;99.90;;;;;;5073010;28;20143;-76
2022/05/27 01:48:23;;;;;;;11.48;4.10;;;13.30;99.90;;;;;;5083613;28;20058;-76
2022/05/27 01:51:05;;;;;;;15.32;5.03;;;13.30;99.90;;;;;;5083976;28;20493;-77
2022/05/27 01:53:46;;;;;;;12.07;4.20;;;13.30;99.90;;;;;;5067344;28;20032;-76
2022/05/27 01:56:20;;;;;;;13.35;3.97;;;13.20;99.90;;;;;;5082342;28;20051;-76
2022/05/27 01:58:51;;;;;;;13.25;4.05;;;13.20;99.90;;;;;;5087387;28;20394;-76
2022/05/27 02:01:31;;;;;;;13.00;4.45;;;13.20;99.90;;;;;;5087942;28;20043;-75
2022/05/27 02:04:06;;;;;;;12.32;3.63;;;13.20;99.90;;;;;;5075842;28;20405;-78
2022/05/27 02:06:54;;;;;;;13.05;4.07;;;13.10;99.90;;;;;;5050215;28;20036;-77
2022/05/27 02:09:27;;;;;;;14.45;4.38;;;13.10;99.90;;;;;;5052806;28;20083;-75
2022/05/27 02:12:02;;;;;;;17.95;4.07;;;13.00;99.90;;;;;;5071061;28;20058;-77
2022/05/27 02:14:51;;;;;;;12.45;3.80;;;12.90;99.90;;;;;;5063626;28;20476;-77
2022/05/27 02:17:27;;;;;;;17.70;3.60;;;12.90;99.90;;;;;;5076385;28;20033;-76
2022/05/27 02:19:58;;;;;;;15.63;3.40;;;12.80;99.90;;;;;;5060696;28;20094;-76
2022/05/27 02:22:32;;;;;;;12.82;3.85;;;12.80;99.90;;;;;;5072686;28;20160;-76
2022/05/27 02:25:06;;;;;;;14.18;3.83;;;12.70;99.90;;;;;;5065689;28;20037;-77
2022/05/27 02:27:47;;;;;;;10.40;3.28;;;12.70;99.90;;;;;;5079823;28;20052;-76
2022/05/27 02:30:15;;;;;;;14.77;3.22;;;12.70;99.90;;;;;;5091833;28;20105;-76
2022/05/27 02:32:45;;;;;;;14.50;3.20;;;12.60;99.90;;;;;;5075601;28;20043;-76
2022/05/27 02:35:22;;;;;;;16.65;3.95;;;12.50;99.90;;;;;;5054869;28;20056;-76
2022/05/27 02:37:55;;;;;;;16.95;3.90;;;12.50;99.90;;;;;;5070922;28;20069;-75
2022/05/27 02:40:45;;;;;;;11.70;3.70;;;12.50;99.90;;;;;;5056189;28;20391;-77
2022/05/27 02:43:22;;;;;;;11.85;3.65;;;12.40;99.90;;;;;;5068841;28;20036;-76
2022/05/27 02:46:00;;;;;;;13.55;3.63;;;12.40;99.90;;;;;;5067446;28;20131;-75
2022/05/27 02:48:43;;;;;;;15.98;3.72;;;12.30;99.90;;;;;;5071914;28;20064;-76
2022/05/27 02:51:42;;;;;;;13.00;3.70;;;12.20;99.90;;;;;;5071804;28;20036;-76
2022/05/27 02:54:24;;;;;;;15.57;3.53;;;12.20;99.90;;;;;;5055315;28;20393;-76
2022/05/27 02:56:54;;;;;;;13.77;3.67;;;12.10;99.90;;;;;;5052932;28;20124;-76
2022/05/27 02:59:22;;;;;;;16.27;3.70;;;12.10;99.90;;;;;;5054486;28;20049;-77
2022/05/27 03:01:48;;;;;;;11.40;3.67;;;12.00;99.90;;;;;;5071313;28;20112;-76
2022/05/27 03:04:19;;;;;;;14.07;3.25;;;12.00;99.90;;;;;;5071338;28;20131;-76
2022/05/27 03:06:59;;;;;;;10.70;3.67;;;12.00;99.90;;;;;;5056170;28;20057;-76
2022/05/27 03:09:47;;;;;;;13.80;3.92;;;11.90;99.90;;;;;;5055793;28;20053;-76
2022/05/27 03:12:26;;;;;;;14.85;4.05;;;11.90;99.90;;;;;;5082402;28;20032;-77
2022/05/27 03:15:20;;;;;;;13.63;3.78;;;11.90;99.90;;;;;;5043854;28;20075;-77
2022/05/27 03:18:17;;;;;;;13.45;3.72;;;11.90;99.90;;;;;;5058290;28;20090;-76
2022/05/27 03:21:27;;;;;;;9.75;3.80;;;11.80;99.90;;;;;;5066503;28;20037;-76
2022/05/27 03:24:21;;;;;;;14.55;3.67;;;11.80;99.90;;;;;;5073786;28;20043;-76
2022/05/27 03:27:18;;;;;;;14.95;3.60;;;11.80;99.90;;;;;;5067546;28;20046;-77
2022/05/27 03:30:05;;;;;;;9.70;3.75;;;11.70;99.90;;;;;;5076520;28;20090;-76
2022/05/27 03:32:59;;;;;;;11.43;3.40;;;11.80;99.90;;;;;;5064350;28;20055;-76
2022/05/27 03:35:36;;;;;;;10.70;3.42;;;11.90;99.90;;;;;;5049259;28;20094;-76
2022/05/27 03:38:17;;;;;;;11.80;3.72;;;11.90;99.90;;;;;;5071794;28;20650;-76
2022/05/27 03:41:08;;;;;;;14.10;4.00;;;11.90;99.90;;;;;;5088240;28;20504;-76
2022/05/27 03:43:36;;;;;;;18.23;4.30;;;11.90;99.90;;;;;;5042158;28;20051;-76
2022/05/27 03:46:02;;;;;;;9.93;4.05;;;11.90;99.90;;;;;;5066505;28;20051;-75
2022/05/27 03:48:33;;;;;;;12.35;3.38;;;11.90;99.90;;;;;;5043379;28;20711;-72
2022/05/27 03:51:17;;;;;;;10.82;3.70;;;11.90;99.90;;;;;;5046593;28;20032;-76
2022/05/27 03:56:28;;;;;;;10.07;3.30;;;12.00;99.90;;;;;;5081801;28;20044;-76
2022/05/27 03:58:54;;;;;;;15.43;3.58;;;12.00;99.90;;;;;;5082343;28;20083;-76
2022/05/27 04:01:29;;;;;;;12.57;3.30;;;12.10;99.90;;;;;;5066609;28;20071;-76
2022/05/27 04:03:56;;;;;;;9.13;2.83;;;12.20;99.90;;;;;;5045528;28;20040;-76
2022/05/27 04:06:22;;;;;;;13.20;3.60;;;12.30;99.90;;;;;;5058406;28;20051;-76
2022/05/27 04:08:47;;;;;;;7.65;2.42;;;12.40;99.90;;;;;;5069087;28;20049;-76
2022/05/27 04:11:13;;;;;;;11.52;2.97;;;12.50;99.90;;;;;;5059245;28;20086;-76
2022/05/27 04:13:39;;;;;;;12.07;3.42;;;12.60;99.90;;;;;;5068353;28;20045;-77
2022/05/27 04:16:05;;;;;;;22.23;3.55;;;12.60;99.90;;;;;;5067783;28;20067;-76
2022/05/27 04:18:30;;;;;;;9.32;2.92;;;12.70;99.90;;;;;;5061616;28;20037;-77
2022/05/27 04:20:56;;;;;;;10.15;2.70;;;12.70;99.90;;;;;;5043500;28;20156;-76
2022/05/27 04:23:21;;;;;;;6.53;2.47;;;12.80;99.90;;;;;;5077322;28;20060;-76
2022/05/27 04:25:48;;;;;;;14.05;3.42;;;12.80;99.90;;;;;;5069492;28;20047;-76
2022/05/27 04:28:14;;;;;;;11.73;2.92;;;12.80;99.90;;;;;;5071386;28;20037;-77
2022/05/27 04:30:41;;;;;;;11.65;2.90;;;12.90;99.90;;;;;;5068362;28;20051;-77
2022/05/27 04:33:08;;;;;;;9.60;3.55;;;12.90;99.90;;;;;;5067848;28;20517;-77
2022/05/27 04:35:33;;;;;;;13.93;3.40;;;12.90;99.90;;;;;;5049187;28;20032;-76
2022/05/27 04:37:59;;;;;;;12.93;2.75;;;12.90;99.90;;;;;;5049496;28;20516;-75
2022/05/27 04:40:24;;;;;;;13.10;3.22;;;13.00;99.90;;;;;;5057169;28;20047;-76
2022/05/27 04:42:50;;;;;;;10.20;3.05;;;13.10;99.90;;;;;;5068815;28;20490;-75
2022/05/27 04:45:16;;;;;;;12.65;2.80;;;13.10;99.90;;;;;;5052491;28;20032;-77
2022/05/27 04:47:41;;;;;;;13.75;2.78;;;13.10;99.90;;;;;;5082808;28;20071;-77
2022/05/27 04:50:10;;;;;;;10.18;3.38;;;13.10;99.90;;;;;;5042765;28;20041;-77
2022/05/27 04:52:36;;;;;;;13.45;3.05;;;13.20;99.90;;;;;;5057773;28;20120;-76
2022/05/27 04:55:07;;;;;;;11.93;3.38;;;13.30;99.90;;;;;;5065884;28;20036;-77
2022/05/27 04:57:42;;;;;;;11.88;2.88;;;13.30;99.90;;;;;;5051335;28;20029;-76
2022/05/27 05:00:17;;;;;;;9.15;2.60;;;13.50;99.90;;;;;;5051513;28;20496;-77
2022/05/27 05:02:43;;;;;;;12.63;2.95;;;13.50;99.90;;;;;;5065582;28;20143;-76
2022/05/27 05:05:14;;;;;;;13.52;3.08;;;13.50;99.90;;;;;;5065981;28;20509;-76
2022/05/27 05:07:41;;;;;;;13.48;2.80;;;13.50;99.90;;;;;;5049940;28;20131;-77
2022/05/27 05:10:11;;;;;;;13.90;3.20;;;13.40;99.90;;;;;;5069022;28;20381;-76
2022/05/27 05:12:37;;;;;;;11.35;2.78;;;13.50;99.90;;;;;;5062323;28;20041;-76
2022/05/27 05:15:03;;;;;;;13.95;3.00;;;13.40;99.90;;;;;;5065707;28;20051;-76
2022/05/27 05:17:28;;;;;;;12.38;3.15;;;13.40;99.90;;;;;;5065083;28;20040;-76
2022/05/27 05:19:55;;;;;;;12.93;3.25;;;13.40;99.90;;;;;;5046612;28;20382;-78
2022/05/27 05:22:24;;;;;;;11.75;3.15;;;13.40;99.90;;;;;;5043112;28;20043;-76
2022/05/27 05:24:53;;;;;;;10.40;2.58;;;13.30;99.90;;;;;;5070032;28;20048;-76
2022/05/27 05:27:20;;;;;;;10.45;2.63;;;13.30;99.90;;;;;;5071520;28;20050;-77
2022/05/27 05:29:46;;;;;;;13.05;3.05;;;13.40;99.90;;;;;;5056787;28;20032;-77
2022/05/27 05:32:12;;;;;;;14.50;3.13;;;13.50;99.90;;;;;;5056232;28;20048;-76
2022/05/27 05:34:37;;;;;;;11.73;2.70;;;13.60;99.90;;;;;;5068031;28;20086;-76
2022/05/27 05:37:04;;;;;;;9.30;2.55;;;13.60;99.90;;;;;;5060147;28;20028;-76
2022/05/27 05:39:29;;;;;;;13.20;2.67;;;13.80;99.90;;;;;;5080281;28;20115;-77
2022/05/27 05:41:58;;;;;;;11.25;2.60;;;13.70;99.90;;;;;;5078166;28;20111;-77
2022/05/27 05:44:24;;;;;;;8.15;2.65;;;13.70;99.90;;;;;;5081993;28;20036;-77
2022/05/27 05:46:49;;;;;;;13.90;3.47;;;13.70;99.90;;;;;;5074299;28;20054;-76
2022/05/27 05:49:15;;;;;;;11.13;2.90;;;13.70;99.90;;;;;;5061559;28;20477;-76
2022/05/27 05:51:40;;;;;;;10.40;2.90;;;13.70;99.90;;;;;;5067927;28;20505;-76
2022/05/27 05:54:06;;;;;;;9.95;2.60;;;13.80;99.90;;;;;;5071668;28;20089;-77
2022/05/27 05:56:33;;;;;;;6.50;2.33;;;14.30;99.90;;;;;;5055475;28;20032;-78
2022/05/27 05:58:59;;;;;;;11.60;2.92;;;15.60;99.90;;;;;;5068554;28;20052;-76
2022/05/27 06:01:26;;;;;;;9.98;2.55;;;16.70;99.90;;;;;;5064975;28;20047;-76
2022/05/27 06:03:51;;;;;;;10.25;2.53;;;17.40;99.90;;;;;;5057900;28;20056;-76
2022/05/27 06:06:17;;;;;;;10.00;2.40;;;17.90;99.90;;;;;;5055881;28;20047;-76
2022/05/27 06:08:43;;;;;;;8.80;2.33;;;18.80;99.90;;;;;;5072630;28;20040;-75
2022/05/27 06:11:09;;;;;;;9.93;2.97;;;19.80;99.90;;;;;;5079969;28;20127;-76
2022/05/27 06:13:36;;;;;;;9.13;2.60;;;20.50;97.40;;;;;;5071759;28;20032;-76
2022/05/27 06:16:02;;;;;;;10.63;2.90;;;21.30;96.20;;;;;;5069568;28;20046;-77
2022/05/27 06:18:28;;;;;;;7.65;2.83;;;21.80;93.90;;;;;;5074209;28;20135;-76
2022/05/27 06:20:54;;;;;;;7.70;2.20;;;22.10;92.50;;;;;;5040269;28;20119;-76
2022/05/27 06:23:21;;;;;;;9.30;2.85;;;22.40;91.30;;;;;;5051854;28;20036;-76
2022/05/27 06:25:54;;;;;;;13.65;2.70;;;21.90;91.70;;;;;;5071108;28;20040;-77
2022/05/27 06:36:35;;;;;;;8.98;3.13;;;21.90;86.30;;;;;;5065267;28;20659;-77
2022/05/27 06:39:02;;;;;;;11.52;2.65;;;21.20;82.20;;;;;;5064344;28;20055;-76
2022/05/27 06:41:28;;;;;;;10.65;2.40;;;22.00;82.70;;;;;;5058635;28;20482;-77
2022/05/27 06:43:55;;;;;;;10.25;2.83;;;22.20;84.50;;;;;;5071638;28;20090;-77
2022/05/27 06:46:21;;;;;;;8.25;2.38;;;22.40;73.50;;;;;;5057368;28;20384;-76
2022/05/27 06:48:47;;;;;;;9.43;2.30;;;21.80;78.40;;;;;;5074560;28;20047;-76
2022/05/27 06:51:12;;;;;;;11.98;3.10;;;21.30;77.60;;;;;;5068806;28;20043;-76
2022/05/27 06:53:39;;;;;;;10.10;2.95;;;21.30;74.60;;;;;;5043169;28;20075;-76
2022/05/27 06:56:07;;;;;;;10.90;2.70;;;21.80;78.90;;;;;;5056170;28;20101;-77
2022/05/27 06:58:33;;;;;;;8.63;2.58;;;22.10;77.90;;;;;;5070526;28;20131;-77
2022/05/27 07:00:59;;;;;;;10.93;2.90;;;21.70;82.60;;;;;;5073552;28;20032;-78
2022/05/27 07:03:24;;;;;;;9.43;2.88;;;21.10;82.80;;;;;;5073885;28;20688;-77
2022/05/27 07:05:53;;;;;;;10.07;2.58;;;21.10;82.30;;;;;;5056435;28;20131;-77
2022/05/27 07:08:19;;;;;;;8.52;2.60;;;21.50;78.30;;;;;;5076716;28;20048;-77
2022/05/27 07:10:44;;;;;;;9.95;2.63;;;21.70;79.20;;;;;;5063073;28;20683;-76
2022/05/27 07:13:10;;;;;;;7.95;2.40;;;21.90;71.90;;;;;;5063542;28;20420;-76
2022/05/27 07:15:36;;;;;;;8.10;2.90;;;21.00;64.60;;;;;;5061933;28;20040;-76
2022/05/27 07:18:06;;;;;;;9.60;2.63;;;20.90;68.70;;;;;;5079401;28;20075;-76
2022/05/27 07:20:32;;;;;;;8.00;1.98;;;20.90;66.90;;;;;;5069111;28;20079;-75
2022/05/27 07:22:58;;;;;;;9.63;3.03;;;20.70;67.30;;;;;;5073742;28;20469;-75
2022/05/27 07:25:24;;;;;;;8.75;2.72;;;20.70;69.40;;;;;;5049614;28;20074;-76
2022/05/27 07:27:49;;;;;;;8.30;2.47;;;20.20;71.90;;;;;;5058505;28;20052;-76
2022/05/27 07:30:15;;;;;;;6.40;2.03;;;20.20;76.40;;;;;;5062098;28;20497;-75
2022/05/27 07:32:42;;;;;;;8.23;2.80;;;20.20;76.00;;;;;;5071292;28;20032;-75
2022/05/27 07:35:08;;;;;;;9.95;2.35;;;19.90;72.80;;;;;;5077875;28;20055;-75
2022/05/27 07:37:35;;;;;;;7.85;2.20;;;20.40;70.20;;;;;;5070592;28;20076;-75
2022/05/27 07:40:01;;;;;;;7.32;2.50;;;20.60;73.70;;;;;;5080530;28;20043;-75
2022/05/27 07:42:26;;;;;;;6.20;2.17;;;20.40;75.60;;;;;;5067120;28;20059;-77
2022/05/27 07:44:52;;;;;;;9.23;2.70;;;20.80;75.40;;;;;;5080380;28;20032;-75
2022/05/27 07:47:18;;;;;;;10.57;3.15;;;20.90;68.60;;;;;;5047672;28;20039;-75
2022/05/27 07:49:44;;;;;;;8.15;2.50;;;21.60;71.50;;;;;;5071054;28;20032;-75
2022/05/27 07:52:10;;;;;;;9.70;2.65;;;22.10;72.70;;;;;;5097017;28;20040;-75
2022/05/27 07:54:36;;;;;;;8.95;2.35;;;21.70;70.90;;;;;;5078283;28;20483;-75
2022/05/27 07:57:02;;;;;;;10.02;2.50;;;20.80;68.80;;;;;;5071035;28;20479;-75
2022/05/27 07:59:28;;;;;;;8.15;2.95;;;21.10;71.70;;;;;;5080007;28;20036;-76
2022/05/27 08:01:54;;;;;;;13.00;3.05;;;21.30;74.10;;;;;;5046982;28;20393;-75
2022/05/27 08:04:20;;;;;;;9.35;2.53;;;20.80;71.40;;;;;;5076546;28;20025;-74
2022/05/27 08:06:46;;;;;;;8.50;2.70;;;20.70;72.80;;;;;;5064620;28;20131;-75
2022/05/27 08:09:15;;;;;;;8.05;2.78;;;20.40;75.70;;;;;;5069258;28;20080;-74
2022/05/27 08:11:41;;;;;;;6.88;2.10;;;19.80;72.50;;;;;;5059425;28;20563;-73
2022/05/27 08:14:08;;;;;;;8.68;3.03;;;19.60;76.10;;;;;;5047749;28;20035;-74
2022/05/27 08:16:34;;;;;;;8.05;2.38;;;19.20;77.40;;;;;;5067969;28;20438;-75
2022/05/27 08:19:00;;;;;;;7.47;2.72;;;19.00;79.10;;;;;;5072144;28;20052;-75
2022/05/27 08:21:26;;;;;;;12.27;2.72;;;18.40;75.80;;;;;;5069593;28;20033;-75
2022/05/27 08:23:52;;;;;;;8.88;2.80;;;18.50;79.50;;;;;;5070640;28;20113;-74
2022/05/27 08:26:18;;;;;;;8.95;2.17;;;18.40;79.60;;;;;;5071655;28;20477;-74
2022/05/27 08:28:44;;;;;;;11.10;2.55;;;18.20;80.00;;;;;;5077699;28;20070;-74
2022/05/27 08:31:09;;;;;;;9.13;2.28;;;18.10;82.10;;;;;;5080148;28;20567;-75
2022/05/27 08:39:10;;;;;;;9.50;2.75;;;17.50;86.50;;;;;;5071396;28;20048;-75
2022/05/27 08:42:00;;;;;;;6.63;1.85;;;17.10;88.30;;;;;;5072802;28;20075;-74
2022/05/27 08:44:56;;;;;;;14.18;3.08;;;17.20;87.20;;;;;;5050870;28;20079;-74
2022/05/27 08:47:31;;;;;;;10.73;2.50;;;17.20;88.10;;;;;;5073388;28;20076;-74
2022/05/27 08:50:04;;;;;;;8.40;2.35;;;17.00;87.60;;;;;;5063512;28;20385;-75
2022/05/27 08:52:54;;;;;;;10.90;3.00;;;17.10;87.50;;;;;;5074308;28;20402;-75
2022/05/27 09:01:08;;;;;;;6.10;1.98;;;17.20;85.70;;;;;;5069395;28;20040;-75
2022/05/27 09:03:40;;;;;;;7.07;2.13;;;16.80;78.60;;;;;;5072973;28;20040;-74
2022/05/27 09:06:06;;;;;;;9.85;2.97;;;16.90;85.50;;;;;;5052390;28;20035;-75
2022/05/27 09:08:32;;;;;;;7.75;2.42;;;17.10;86.90;;;;;;5076239;28;20533;-73
2022/05/27 09:11:26;;;;;;;9.77;2.22;;;17.30;88.70;;;;;;5073191;28;20048;-75
2022/05/27 09:14:16;;;;;;;8.93;2.78;;;17.70;87.10;;;;;;5084847;28;20052;-74
2022/05/27 09:17:00;;;;;;;6.72;2.20;;;17.90;85.90;;;;;;5091912;28;20044;-74
2022/05/27 09:19:46;;;;;;;7.85;2.00;;;18.10;82.20;;;;;;5077168;28;20047;-75
2022/05/27 09:22:33;;;;;;;9.63;1.92;;;18.20;85.80;;;;;;5055261;28;20067;-74
2022/05/27 09:25:05;;;;;;;9.00;2.13;;;18.30;82.80;;;;;;5071947;28;20057;-74
2022/05/27 09:27:52;;;;;;;8.27;2.42;;;18.10;81.60;;;;;;5080079;28;20377;-74
2022/05/27 09:30:18;;;;;;;8.82;1.90;;;17.70;82.60;;;;;;5063339;28;20044;-74
2022/05/27 09:33:11;;;;;;;7.88;2.20;;;17.70;87.00;;;;;;5058993;28;20040;-74
2022/05/27 09:35:48;;;;;;;7.35;1.85;;;17.60;83.40;;;;;;5056977;28;20043;-75
2022/05/27 09:38:21;;;;;;;7.55;2.05;;;18.00;87.40;;;;;;5073745;28;20036;-73
2022/05/27 09:40:56;;;;;;;6.82;1.70;;;18.10;81.70;;;;;;5063352;28;20760;-74
2022/05/27 09:43:30;;;;;;;8.63;2.38;;;18.10;81.00;;;;;;5075237;28;20048;-74
2022/05/27 09:46:00;;;;;;;6.28;1.98;;;18.00;82.40;;;;;;5065395;28;20052;-75
2022/05/27 09:48:27;;;;;;;9.27;1.92;;;18.00;85.10;;;;;;5072584;28;20044;-74
2022/05/27 09:50:56;;;;;;;8.07;2.50;;;18.10;83.10;;;;;;5063699;28;20119;-75
2022/05/27 09:53:27;;;;;;;5.85;1.77;;;18.00;86.20;;;;;;5068763;28;20032;-74
2022/05/27 09:56:04;;;;;;;9.20;2.35;;;17.70;82.00;;;;;;5073579;28;20035;-75
2022/05/27 09:58:33;;;;;;;5.53;1.70;;;17.70;84.40;;;;;;5073480;28;20077;-74
2022/05/27 10:01:02;;;;;;;8.25;2.10;;;17.60;81.70;;;;;;5076971;28;20040;-74
2022/05/27 10:03:37;;;;;;;7.97;1.95;;;17.80;86.00;;;;;;5077346;28;20122;-74
2022/05/27 10:06:12;;;;;;;7.55;1.80;;;17.90;84.80;;;;;;5071410;28;20722;-74
2022/05/27 10:08:44;;;;;;;8.77;2.03;;;18.00;85.10;;;;;;5056714;28;20516;-74
2022/05/27 10:11:22;;;;;;;10.68;2.47;;;17.70;83.70;;;;;;5074322;28;20381;-74
2022/05/27 10:14:07;;;;;;;8.43;2.17;;;17.40;88.80;;;;;;5058123;28;20145;-74
2022/05/27 10:16:34;;;;;;;10.40;2.30;;;17.30;85.10;;;;;;5079446;28;20039;-73
2022/05/27 10:19:13;;;;;;;7.80;2.10;;;17.50;84.70;;;;;;5064749;28;20085;-74
2022/05/27 10:21:50;;;;;;;8.38;2.17;;;17.90;88.70;;;;;;5058430;28;20081;-74
2022/05/27 10:24:28;;;;;;;10.63;2.38;;;17.90;81.10;;;;;;5079112;28;20081;-73
2022/05/27 10:27:17;;;;;;;9.00;2.30;;;17.90;86.10;;;;;;5075583;28;20510;-74
2022/05/27 10:30:00;;;;;;;10.65;2.08;;;17.90;85.20;;;;;;5085516;28;20044;-74
2022/05/27 10:32:38;;;;;;;6.85;2.25;;;17.80;87.40;;;;;;5072948;28;20040;-74
2022/05/27 10:35:32;;;;;;;9.20;2.15;;;17.70;86.70;;;;;;5077954;28;20454;-75
2022/05/27 10:38:10;;;;;;;10.30;2.30;;;17.60;83.80;;;;;;5078479;28;20050;-75
2022/05/27 10:41:01;;;;;;;10.77;2.42;;;17.60;90.20;;;;;;5072307;28;20048;-74
2022/05/27 10:43:45;;;;;;;10.48;2.45;;;17.50;84.40;;;;;;5066084;28;20051;-73
2022/05/27 10:46:15;;;;;;;10.45;1.98;;;17.50;84.90;;;;;;5072870;28;20081;-74
2022/05/27 10:49:18;;;;;;;10.18;2.30;;;17.70;86.90;;;;;;5071469;28;20097;-74
2022/05/27 10:52:17;;;;;;;9.13;2.60;;;17.80;86.60;;;;;;5073848;28;20106;-75
2022/05/27 10:54:46;;;;;;;7.03;2.05;;;17.60;81.40;;;;;;5065765;28;20477;-74
2022/05/27 11:03:23;;;;;;;6.85;1.95;;;17.30;82.30;;;;;;5074929;28;20048;-74
2022/05/27 11:06:09;;;;;;;6.60;2.08;;;17.30;84.00;;;;;;5074606;28;20056;-73
2022/05/27 11:09:01;;;;;;;9.57;2.35;;;17.30;83.20;;;;;;5062000;28;20052;-74
2022/05/27 11:11:33;;;;;;;7.70;2.33;;;17.30;86.20;;;;;;5038827;28;20047;-75
2022/05/27 11:17:16;;;;;;;6.88;1.90;;;17.80;87.90;;;;;;5070651;28;20052;-73
2022/05/27 11:20:08;;;;;;;6.57;1.98;;;18.10;86.20;;;;;;5081478;28;20060;-72
2022/05/27 11:22:38;;;;;;;8.85;2.35;;;18.00;86.30;;;;;;5073071;28;20040;-74
2022/05/27 11:25:21;;;;;;;11.05;2.10;;;18.00;86.50;;;;;;5071869;28;20055;-74
2022/05/27 11:28:13;;;;;;;6.03;1.92;;;18.20;86.70;;;;;;5071099;28;20044;-75
2022/05/27 11:31:03;;;;;;;12.57;2.15;;;18.60;87.70;;;;;;5060694;28;20089;-74
2022/05/27 11:34:05;;;;;;;10.95;2.10;;;18.30;83.30;;;;;;5079765;28;20110;-74
2022/05/27 11:36:45;;;;;;;12.07;2.28;;;18.10;86.60;;;;;;5059985;28;20047;-74
2022/05/27 11:39:34;;;;;;;7.00;1.95;;;18.20;86.70;;;;;;5055195;28;20101;-74
2022/05/27 11:42:18;;;;;;;9.93;2.20;;;17.80;82.10;;;;;;5072764;28;20044;-74
2022/05/27 11:45:08;;;;;;;9.57;2.80;;;17.70;82.10;;;;;;5072976;28;20104;-73
2022/05/27 11:47:58;;;;;;;7.10;2.05;;;17.70;85.20;;;;;;5066957;28;20055;-72
2022/05/27 11:50:38;;;;;;;5.55;2.05;;;17.60;80.30;;;;;;5071844;28;20046;-72
2022/05/27 11:53:28;;;;;;;9.77;2.63;;;17.60;86.30;;;;;;5062120;28;20036;-74
2022/05/27 11:56:08;;;;;;;8.85;2.03;;;17.50;86.30;;;;;;5068264;28;20805;-74
2022/05/27 11:58:56;;;;;;;8.07;1.98;;;17.40;85.50;;;;;;5073772;28;20048;-72
2022/05/27 12:01:31;;;;;;;12.15;2.78;;;17.30;88.70;;;;;;5072100;28;20058;-73
2022/05/27 12:04:25;;;;;;;10.60;2.72;;;16.90;87.70;;;;;;5070499;28;20039;-74
2022/05/27 12:06:53;;;;;;;11.43;2.58;;;16.80;86.90;;;;;;5073188;28;20123;-73
2022/05/27 12:09:41;;;;;;;11.38;3.00;;;16.50;88.10;;;;;;5073426;28;20056;-72
2022/05/27 12:12:11;;;;;;;13.45;3.00;;;16.70;89.10;;;;;;5070198;28;20051;-74
2022/05/27 12:14:55;;;;;;;13.70;2.67;;;17.00;87.70;;;;;;5064509;28;20036;-73
2022/05/27 12:17:24;;;;;;;10.43;2.80;;;17.20;89.10;;;;;;5069676;28;20048;-73
2022/05/27 12:20:00;;;;;;;7.75;2.35;;;17.30;90.60;;;;;;5065118;28;20039;-74
2022/05/27 12:22:31;;;;;;;10.90;3.17;;;17.30;88.00;;;;;;5067506;28;20064;-74
2022/05/27 12:25:15;;;;;;;10.93;2.60;;;17.20;87.20;;;;;;5056992;28;20036;-75
2022/05/27 12:27:41;;;;;;;11.15;2.47;;;17.50;90.80;;;;;;5066716;28;20398;-74
2022/05/27 12:30:09;;;;;;;13.75;2.50;;;17.70;90.50;;;;;;5069281;28;20032;-74
2022/05/27 12:32:39;;;;;;;10.50;2.92;;;17.70;86.40;;;;;;5073573;28;20040;-74
2022/05/27 12:35:47;;;;;;;8.05;2.45;;;17.40;89.30;;;;;;5074181;28;20044;-75
2022/05/27 12:38:25;;;;;;;6.47;1.98;;;17.30;88.80;;;;;;5037205;28;20143;-75
2022/05/27 12:40:58;;;;;;;10.60;3.10;;;17.40;91.00;;;;;;5072164;28;20044;-76
2022/05/27 12:43:31;;;;;;;13.13;3.22;;;17.60;88.60;;;;;;5064582;28;20055;-75
2022/05/27 12:46:02;;;;;;;12.65;2.88;;;17.60;88.10;;;;;;5066999;28;20044;-74
2022/05/27 12:48:45;;;;;;;12.88;3.42;;;17.80;86.90;;;;;;5071966;28;20069;-75
2022/05/27 12:51:18;;;;;;;8.40;1.75;;;18.20;89.10;;;;;;5055441;28;20063;-75
2022/05/27 12:53:51;;;;;;;13.77;2.33;;;18.60;89.90;;;;;;5071967;28;20047;-75
2022/05/27 13:02:22;;;;;;;8.65;2.35;;;17.90;86.10;;;;;;5065730;28;20126;-75
2022/05/27 13:04:53;;;;;;;8.43;2.30;;;17.40;84.50;;;;;;5056122;28;20040;-74
2022/05/27 13:07:27;;;;;;;8.32;2.20;;;17.30;88.00;;;;;;5072155;28;20040;-75
2022/05/27 13:09:54;;;;;;;9.15;2.63;;;17.30;91.80;;;;;;5064143;28;20047;-74
2022/05/27 13:12:42;;;;;;;9.70;2.30;;;17.10;91.10;;;;;;5082321;28;20029;-74
2022/05/27 13:15:24;;;;;;;11.82;2.45;;;17.10;90.60;;;;;;5080017;28;20377;-75
2022/05/27 13:18:05;;;;;;;9.55;2.50;;;17.10;90.90;;;;;;5071470;28;20055;-74
2022/05/27 13:20:52;;;;;;;10.38;2.70;;;17.10;90.10;;;;;;5058101;28;20358;-74
2022/05/27 13:23:21;;;;;;;9.32;2.72;;;16.90;89.00;;;;;;5052936;22;20592;-72
2022/05/27 13:26:13;;;;;;;7.45;2.50;;;16.80;91.00;;;;;;5043866;28;20478;-72
2022/05/27 13:28:46;;;;;;;;;;;16.70;90.90;;;;;;5046542;28;20029;-72
2022/05/27 13:31:14;;;;;;;8.88;2.53;;;16.80;89.70;;;;;;5048110;28;19944;-72
2022/05/27 13:33:56;;;;;;;10.55;2.30;;;16.70;91.20;;;;;;5049582;28;20048;-73
2022/05/27 13:36:22;;;;;;;;;;;16.50;90.90;;;;;;5057680;28;20577;-72
2022/05/27 13:39:02;;;;;;;7.05;2.03;;;16.50;91.80;;;;;;5053319;28;19917;-72
2022/05/27 13:41:39;;;;;;;7.85;1.92;;;16.70;92.10;;;;;;5066566;28;20041;-73
2022/05/27 13:44:06;;;;;;;7.35;2.03;;;17.00;93.30;;;;;;5032919;28;20533;-73
2022/05/27 13:46:38;;;;;;;9.32;2.13;;;17.40;93.00;;;;;;5063931;28;20558;-72
2022/05/27 13:49:15;;;;;;;6.20;1.80;;;17.30;91.70;;;;;;5066025;28;20074;-73
2022/05/27 13:51:45;;;;;;;11.32;2.35;;;17.30;90.70;;;;;;5039664;28;20446;-73
2022/05/27 13:54:28;;;;;;;9.98;2.83;;;17.20;90.00;;;;;;5062179;28;20037;-72
2022/05/27 13:57:09;;;;;;;8.98;2.47;;;17.30;91.40;;;;;;5056918;28;20043;-72
2022/05/27 13:59:48;;;;;;;8.95;2.35;;;17.20;91.60;;;;;;5041161;28;20545;-73